Time;durP1;ratioP1;P1;durP2;ratioP2;P2;SDS_P1;SDS_P2;PMS_P1;PMS_P2;Temp;Humidity;BMP_temperature;BMP_pressure;BME280_temperature;BME280_humidity;BME280_pressure;Samples;Min_cycle;Max_cycle;Signal;HPM_P1;HPM_P2
2023/01/26 00:00:47;;;;;;;104.30;24.92;;;-1.00;99.90;;;;;;5051619;28;20072;-47
2023/01/26 00:03:13;;;;;;;81.72;20.65;;;-0.20;99.90;;;;;;5052132;28;20072;-47
2023/01/26 00:05:39;;;;;;;100.53;23.60;;;-0.50;99.90;;;;;;5051959;28;20048;-48
2023/01/26 00:08:06;;;;;;;91.28;22.00;;;-0.40;99.90;;;;;;5051684;28;20031;-47
2023/01/26 00:10:31;;;;;;;72.28;20.10;;;-0.80;99.90;;;;;;5051458;28;20427;-46
2023/01/26 00:12:57;;;;;;;100.20;23.13;;;-0.20;99.90;;;;;;5051784;28;20033;-49
2023/01/26 00:15:23;;;;;;;109.43;23.83;;;-0.60;99.90;;;;;;5051513;28;20029;-47
2023/01/26 00:17:51;;;;;;;105.82;22.95;;;-0.70;99.90;;;;;;5051734;28;20043;-48
2023/01/26 00:20:17;;;;;;;96.10;23.48;;;-0.30;99.90;;;;;;5050933;28;20124;-45
2023/01/26 00:22:43;;;;;;;93.13;22.85;;;-0.40;99.90;;;;;;5048455;28;20057;-45
2023/01/26 00:25:09;;;;;;;103.30;22.33;;;-0.50;99.90;;;;;;5051929;28;20044;-46
2023/01/26 00:27:35;;;;;;;89.32;22.05;;;-0.10;99.90;;;;;;5051205;28;20035;-46
2023/01/26 00:30:01;;;;;;;99.85;22.63;;;-0.80;99.90;;;;;;5051609;28;20041;-46
2023/01/26 00:32:26;;;;;;;115.18;24.35;;;-0.80;99.90;;;;;;5049907;28;20094;-47
2023/01/26 00:34:52;;;;;;;86.05;20.48;;;-0.30;99.90;;;;;;5051572;28;20041;-50
2023/01/26 00:37:18;;;;;;;103.47;22.50;;;-0.80;99.90;;;;;;5051417;28;20040;-46
2023/01/26 00:39:43;;;;;;;103.75;21.95;;;-0.60;99.90;;;;;;5051180;28;20075;-48
2023/01/26 00:42:12;;;;;;;112.15;23.48;;;-0.70;99.90;;;;;;5051159;28;20110;-48
2023/01/26 00:44:40;;;;;;;93.35;21.25;;;-0.60;99.90;;;;;;5051431;28;20553;-47
2023/01/26 00:47:08;;;;;;;100.65;23.02;;;-0.90;99.90;;;;;;5051134;28;20032;-47
2023/01/26 00:49:34;;;;;;;113.10;22.42;;;0.00;99.90;;;;;;5051366;28;20121;-48
2023/01/26 00:52:00;;;;;;;100.80;22.80;;;-0.70;99.90;;;;;;5050866;28;20087;-47
2023/01/26 00:54:27;;;;;;;105.18;22.33;;;-0.10;99.90;;;;;;5051226;28;20060;-48
2023/01/26 00:56:53;;;;;;;102.00;22.17;;;-0.70;99.90;;;;;;5050982;28;20392;-48
2023/01/26 00:59:19;;;;;;;95.85;21.95;;;-0.70;99.90;;;;;;5050773;28;20055;-49
2023/01/26 01:01:44;;;;;;;101.00;22.05;;;-0.30;99.90;;;;;;5050846;28;20029;-48
2023/01/26 01:04:10;;;;;;;99.70;22.15;;;-0.10;99.90;;;;;;5051040;28;20033;-48
2023/01/26 01:06:36;;;;;;;99.55;22.27;;;0.10;99.90;;;;;;5050532;28;20036;-46
2023/01/26 01:09:02;;;;;;;123.18;24.60;;;0.10;99.90;;;;;;5050808;28;20037;-49
2023/01/26 01:11:27;;;;;;;100.95;22.08;;;-0.70;99.90;;;;;;5050861;28;20044;-46
2023/01/26 01:13:53;;;;;;;100.25;21.15;;;0.00;99.90;;;;;;5051017;28;20477;-46
2023/01/26 01:16:19;;;;;;;106.53;22.15;;;-0.80;99.90;;;;;;5050534;28;20396;-46
2023/01/26 01:18:45;;;;;;;102.25;21.30;;;0.20;99.90;;;;;;5050801;28;20032;-47
2023/01/26 01:21:13;;;;;;;120.07;22.05;;;-0.30;99.90;;;;;;5050478;28;20143;-49
2023/01/26 01:23:40;;;;;;;108.97;21.25;;;-0.40;99.90;;;;;;5050916;28;20045;-46
2023/01/26 01:26:06;;;;;;;102.43;21.98;;;-0.10;99.90;;;;;;5050263;28;20099;-47
2023/01/26 01:28:33;;;;;;;108.13;23.08;;;0.20;99.90;;;;;;5050500;28;20057;-45
2023/01/26 01:31:02;;;;;;;91.35;21.75;;;0.20;99.90;;;;;;5050647;28;20033;-49
2023/01/26 01:33:27;;;;;;;98.00;21.45;;;-0.10;99.90;;;;;;5050484;28;20067;-46
2023/01/26 01:35:58;;;;;;;102.45;22.20;;;0.10;99.90;;;;;;5050323;28;20037;-46
2023/01/26 01:38:24;;;;;;;114.68;22.73;;;0.10;99.90;;;;;;5050332;28;20045;-46
2023/01/26 01:40:49;;;;;;;119.13;22.58;;;-0.40;99.90;;;;;;5050438;28;20530;-47
2023/01/26 01:43:15;;;;;;;113.93;22.77;;;0.00;99.90;;;;;;5050656;28;20073;-47
2023/01/26 01:45:44;;;;;;;122.30;23.52;;;-0.50;99.90;;;;;;5048846;28;20123;-47
2023/01/26 01:48:44;;;;;;;124.10;22.48;;;0.10;99.90;;;;;;5050646;28;20100;-47
2023/01/26 01:51:34;;;;;;;111.68;23.05;;;-0.60;99.90;;;;;;5048464;28;20029;-46
2023/01/26 01:54:04;;;;;;;115.18;23.02;;;-0.60;99.90;;;;;;5050485;28;20048;-48
2023/01/26 01:56:32;;;;;;;118.90;23.67;;;-0.50;99.90;;;;;;5048833;28;20041;-47
2023/01/26 01:59:00;;;;;;;122.25;23.05;;;0.10;99.90;;;;;;5050353;28;20494;-47
2023/01/26 02:01:26;;;;;;;101.78;20.63;;;-0.30;99.90;;;;;;5050402;28;20362;-48
2023/01/26 02:03:56;;;;;;;96.28;20.73;;;0.20;99.90;;;;;;5051681;28;20048;-46
2023/01/26 02:06:29;;;;;;;103.95;21.52;;;-0.60;99.90;;;;;;5054061;28;20094;-48
2023/01/26 02:08:56;;;;;;;104.40;22.73;;;0.00;99.90;;;;;;5053187;28;20039;-48
2023/01/26 02:11:28;;;;;;;106.57;21.25;;;0.00;99.90;;;;;;5053737;28;20087;-48
2023/01/26 02:13:56;;;;;;;113.55;24.17;;;-0.60;99.90;;;;;;5054300;28;20089;-45
2023/01/26 02:16:22;;;;;;;115.78;23.67;;;0.10;99.90;;;;;;5053594;28;20029;-46
2023/01/26 02:18:48;;;;;;;102.25;21.75;;;0.00;99.90;;;;;;5053686;28;20119;-46
2023/01/26 02:21:20;;;;;;;119.65;22.65;;;-0.70;99.90;;;;;;5053435;28;20041;-48
2023/01/26 02:24:07;;;;;;;114.25;22.58;;;-0.60;99.90;;;;;;5053753;28;20095;-47
2023/01/26 02:26:35;;;;;;;123.22;21.88;;;-0.70;99.90;;;;;;5053989;28;20468;-46
2023/01/26 02:29:02;;;;;;;109.68;21.23;;;0.20;99.90;;;;;;5050697;28;20029;-46
2023/01/26 02:31:29;;;;;;;115.03;22.02;;;0.30;99.90;;;;;;5053562;28;20063;-47
2023/01/26 02:33:55;;;;;;;127.57;22.70;;;0.20;99.90;;;;;;5053802;28;20041;-47
2023/01/26 02:36:23;;;;;;;121.43;23.65;;;0.20;99.90;;;;;;5053764;28;20542;-47
2023/01/26 02:39:15;;;;;;;122.05;25.50;;;-0.20;99.90;;;;;;5053077;28;20123;-47
2023/01/26 02:44:26;;;;;;;110.82;22.13;;;0.20;99.90;;;;;;5053672;28;20080;-48
2023/01/26 02:46:53;;;;;;;118.28;24.40;;;-0.30;99.90;;;;;;5053628;28;20028;-48
2023/01/26 02:52:06;;;;;;;132.07;23.92;;;-0.60;99.90;;;;;;5052231;28;20455;-48
2023/01/26 02:57:17;;;;;;;;;;;0.10;99.90;;;;;;5053567;28;20100;-47
2023/01/26 02:59:42;;;;;;;118.75;22.38;;;0.00;99.90;;;;;;5053438;28;19921;-47
2023/01/26 03:02:09;;;;;;;103.55;22.10;;;0.30;99.90;;;;;;5053127;28;20041;-48
2023/01/26 03:04:34;;;;;;;118.97;22.77;;;-0.20;99.90;;;;;;5053286;28;20037;-47
2023/01/26 03:07:00;;;;;;;133.13;24.70;;;0.20;99.90;;;;;;5052766;28;20036;-46
2023/01/26 03:09:26;;;;;;;133.70;24.73;;;-0.40;99.90;;;;;;5052677;28;20116;-53
2023/01/26 03:11:52;;;;;;;112.63;25.00;;;0.30;99.90;;;;;;5052939;28;20121;-51
2023/01/26 03:14:18;;;;;;;132.07;25.95;;;-0.40;99.90;;;;;;5052822;28;20483;-48
2023/01/26 03:16:43;;;;;;;129.80;24.50;;;-0.10;99.90;;;;;;5052724;28;20041;-49
2023/01/26 03:27:26;;;;;;;99.05;21.52;;;-0.50;99.90;;;;;;5052824;28;19927;-48
2023/01/26 03:29:53;;;;;;;109.45;22.30;;;-0.50;99.90;;;;;;5052629;28;20037;-49
2023/01/26 03:32:19;;;;;;;116.70;24.00;;;-0.40;99.90;;;;;;5052719;28;20064;-49
2023/01/26 03:34:44;;;;;;;130.63;24.88;;;-0.30;99.90;;;;;;5052654;28;20067;-47
2023/01/26 03:37:10;;;;;;;126.15;23.40;;;0.40;99.90;;;;;;5052410;28;20489;-48
2023/01/26 03:56:13;;;;;;;96.75;21.33;;;0.40;99.90;;;;;;5051934;28;20130;-48
2023/01/26 03:58:39;;;;;;;;;;;0.40;99.90;;;;;;5052314;28;20076;-49
2023/01/26 04:01:05;;;;;;;89.03;18.40;;;0.50;99.90;;;;;;5050404;28;19963;-47
2023/01/26 04:08:59;;;;;;;99.10;19.10;;;0.10;99.90;;;;;;5051555;28;20051;-49
2023/01/26 04:11:25;;;;;;;97.53;21.15;;;0.50;99.90;;;;;;5050713;28;20451;-47
2023/01/26 04:22:03;;;;;;;92.88;21.23;;;0.40;99.90;;;;;;5051659;28;20531;-49
2023/01/26 04:24:29;;;;;;;93.95;19.63;;;0.00;99.90;;;;;;5051311;28;20080;-46
2023/01/26 04:26:55;;;;;;;100.82;21.83;;;0.40;99.90;;;;;;5051062;28;20116;-50
2023/01/26 04:29:20;;;;;;;87.85;19.80;;;-0.30;99.90;;;;;;5051252;28;20395;-48
2023/01/26 04:31:46;;;;;;;122.70;23.73;;;-0.40;99.90;;;;;;5050378;28;20052;-51
2023/01/26 04:34:14;;;;;;;95.13;21.00;;;0.60;99.90;;;;;;5051511;28;20423;-48
2023/01/26 04:36:41;;;;;;;109.05;24.33;;;0.40;99.90;;;;;;5051598;28;20044;-46
2023/01/26 04:39:07;;;;;;;109.72;23.25;;;-0.30;99.90;;;;;;5050874;28;20060;-47
2023/01/26 04:41:33;;;;;;;112.68;22.40;;;0.60;99.90;;;;;;5050166;28;20086;-48
2023/01/26 04:43:59;;;;;;;119.00;21.92;;;-0.30;99.90;;;;;;5050141;28;20045;-49
2023/01/26 04:46:24;;;;;;;115.65;23.75;;;0.50;99.90;;;;;;5049806;28;20041;-49
2023/01/26 04:48:50;;;;;;;111.40;24.80;;;-0.30;99.90;;;;;;5051138;28;20037;-47
2023/01/26 04:51:20;;;;;;;128.20;25.67;;;0.60;99.90;;;;;;5050797;28;20094;-47
2023/01/26 04:53:47;;;;;;;109.95;24.90;;;-0.30;99.90;;;;;;5050972;28;20112;-48
2023/01/26 04:56:23;;;;;;;132.88;25.38;;;0.00;99.90;;;;;;5051152;28;20037;-48
2023/01/26 04:58:50;;;;;;;131.43;23.40;;;-0.10;99.90;;;;;;5051087;28;20049;-46
2023/01/26 05:01:16;;;;;;;120.18;23.00;;;0.00;99.90;;;;;;5050872;28;20461;-50
2023/01/26 05:03:41;;;;;;;105.18;22.92;;;0.60;99.90;;;;;;5051153;28;20392;-49
2023/01/26 05:06:07;;;;;;;125.30;23.95;;;-0.10;99.90;;;;;;5051090;28;20037;-49
2023/01/26 05:08:33;;;;;;;137.05;23.77;;;0.00;99.90;;;;;;5050866;28;20437;-48
2023/01/26 05:10:58;;;;;;;119.03;22.98;;;-0.20;99.90;;;;;;5050864;28;20398;-50
2023/01/26 05:13:24;;;;;;;153.48;27.25;;;0.50;99.90;;;;;;5050900;28;20073;-49
2023/01/26 05:15:50;;;;;;;124.28;26.90;;;0.20;99.90;;;;;;5050744;28;20439;-48
2023/01/26 05:18:15;;;;;;;146.18;25.15;;;0.70;99.90;;;;;;5049343;28;20048;-50
2023/01/26 05:20:41;;;;;;;116.78;23.10;;;0.50;99.90;;;;;;5050922;28;20082;-51
2023/01/26 05:23:07;;;;;;;130.93;23.83;;;0.40;99.90;;;;;;5050313;28;20057;-50
2023/01/26 05:25:32;;;;;;;128.80;24.58;;;0.50;99.90;;;;;;5050409;28;20385;-50
2023/01/26 05:27:59;;;;;;;131.82;26.88;;;0.20;99.90;;;;;;5050441;28;20029;-49
2023/01/26 05:30:24;;;;;;;127.53;24.45;;;-0.20;99.90;;;;;;5050794;28;20055;-49
2023/01/26 05:32:50;;;;;;;130.13;24.48;;;1.30;99.90;;;;;;5049440;28;20041;-49
2023/01/26 05:35:16;;;;;;;136.57;25.23;;;0.10;99.90;;;;;;5049307;28;20045;-52
2023/01/26 05:37:42;;;;;;;137.50;27.52;;;0.10;99.90;;;;;;5050623;28;20045;-50
2023/01/26 05:40:09;;;;;;;151.65;27.70;;;0.70;99.90;;;;;;5054292;28;20080;-48
2023/01/26 05:42:35;;;;;;;134.45;25.85;;;0.70;99.90;;;;;;5053258;28;20045;-48
2023/01/26 05:45:00;;;;;;;137.27;25.80;;;0.20;99.90;;;;;;5054402;28;20041;-49
2023/01/26 05:47:26;;;;;;;137.98;26.05;;;0.00;99.90;;;;;;5053563;28;20032;-49
2023/01/26 05:49:52;;;;;;;147.00;26.85;;;0.20;99.90;;;;;;5054638;28;20428;-49
2023/01/26 05:52:19;;;;;;;133.07;26.05;;;0.20;99.90;;;;;;5054748;28;20040;-47
2023/01/26 05:54:45;;;;;;;142.80;25.15;;;-0.20;99.90;;;;;;5054178;28;20043;-51
2023/01/26 05:57:11;;;;;;;133.32;25.95;;;-0.10;99.90;;;;;;5054420;28;20028;-49
2023/01/26 05:59:37;;;;;;;135.90;24.83;;;0.00;99.90;;;;;;5053050;28;20122;-50
2023/01/26 06:02:04;;;;;;;182.77;29.67;;;0.60;99.90;;;;;;5054364;28;20112;-48
2023/01/26 06:04:30;;;;;;;149.88;26.23;;;-0.10;99.90;;;;;;5052916;28;20361;-48
2023/01/26 06:06:57;;;;;;;140.30;25.92;;;0.80;99.90;;;;;;5054266;28;20464;-48
2023/01/26 06:09:23;;;;;;;179.35;26.70;;;0.80;99.90;;;;;;5053846;28;20037;-49
2023/01/26 06:11:49;;;;;;;177.00;25.63;;;0.00;99.90;;;;;;5054247;28;20068;-49
2023/01/26 06:14:15;;;;;;;153.10;27.77;;;-0.20;99.90;;;;;;5054051;28;20491;-47
2023/01/26 06:16:41;;;;;;;148.40;26.05;;;0.80;99.90;;;;;;5054484;28;20033;-47
2023/01/26 06:19:09;;;;;;;131.63;25.83;;;0.50;99.90;;;;;;5053614;28;20103;-48
2023/01/26 06:21:35;;;;;;;172.45;26.58;;;-0.10;99.90;;;;;;5053583;28;20055;-50
2023/01/26 06:24:01;;;;;;;168.88;27.73;;;0.40;99.90;;;;;;5052488;28;20070;-52
2023/01/26 06:26:27;;;;;;;172.15;28.02;;;0.70;99.90;;;;;;5053567;28;20037;-49
2023/01/26 06:28:52;;;;;;;169.02;29.77;;;1.00;99.90;;;;;;5053843;28;20033;-48
2023/01/26 06:31:19;;;;;;;163.80;28.77;;;0.70;99.90;;;;;;5053854;28;20045;-51
2023/01/26 06:33:45;;;;;;;181.60;30.35;;;-0.10;99.90;;;;;;5053457;28;20037;-49
2023/01/26 06:36:13;;;;;;;201.20;33.75;;;-0.10;99.90;;;;;;5053821;28;20044;-47
2023/01/26 06:38:45;;;;;;;234.52;31.20;;;0.70;99.90;;;;;;5051123;28;20122;-52
2023/01/26 06:41:11;;;;;;;189.82;31.77;;;0.80;99.90;;;;;;5052730;28;20552;-47
2023/01/26 06:43:36;;;;;;;182.35;29.05;;;0.70;99.90;;;;;;5050978;28;20098;-49
2023/01/26 06:46:04;;;;;;;249.38;32.63;;;0.00;99.90;;;;;;5053240;28;20111;-50
2023/01/26 06:48:33;;;;;;;177.63;29.42;;;0.60;99.90;;;;;;5053273;28;20040;-50
2023/01/26 06:51:27;;;;;;;224.40;31.88;;;0.90;99.90;;;;;;5052759;28;20045;-49
2023/01/26 06:53:57;;;;;;;190.88;29.40;;;0.20;99.90;;;;;;5052328;28;20107;-52
2023/01/26 06:56:23;;;;;;;189.40;29.20;;;0.90;99.90;;;;;;5053372;28;20041;-47
2023/01/26 06:58:50;;;;;;;200.60;31.25;;;0.30;99.90;;;;;;5053275;28;20049;-50
2023/01/26 07:01:17;;;;;;;235.23;32.35;;;0.90;99.90;;;;;;5053118;28;20098;-52
2023/01/26 07:03:43;;;;;;;221.23;32.47;;;0.90;99.90;;;;;;5052013;28;20037;-50
2023/01/26 07:06:12;;;;;;;183.65;31.05;;;0.80;99.90;;;;;;5053196;28;20043;-51
2023/01/26 07:08:38;;;;;;;217.63;32.45;;;0.80;99.90;;;;;;5051892;28;20041;-53
2023/01/26 07:11:04;;;;;;;214.38;31.27;;;0.90;99.90;;;;;;5052960;28;20029;-51
2023/01/26 07:13:30;;;;;;;197.57;31.45;;;0.60;99.90;;;;;;5051777;28;20477;-49
2023/01/26 07:16:04;;;;;;;228.20;32.58;;;0.70;99.90;;;;;;5052640;28;20033;-48
2023/01/26 07:18:30;;;;;;;202.90;32.45;;;0.50;99.90;;;;;;5052915;28;20106;-49
2023/01/26 07:21:03;;;;;;;188.27;32.40;;;0.30;99.90;;;;;;5052491;28;20073;-48
2023/01/26 07:23:29;;;;;;;227.63;32.53;;;0.60;99.90;;;;;;5051406;28;20087;-49
2023/01/26 07:25:55;;;;;;;276.42;34.13;;;0.50;99.90;;;;;;5052422;28;20072;-50
2023/01/26 07:28:21;;;;;;;216.90;32.95;;;0.10;99.90;;;;;;5052716;28;20099;-50
2023/01/26 07:30:47;;;;;;;195.52;30.75;;;0.10;99.90;;;;;;5047536;28;20040;-48
2023/01/26 07:33:14;;;;;;;197.90;29.85;;;0.00;99.90;;;;;;5051287;28;20503;-46
2023/01/26 07:35:39;;;;;;;208.50;30.50;;;0.50;99.90;;;;;;5050479;28;20455;-51
2023/01/26 07:38:05;;;;;;;201.48;30.85;;;0.80;99.90;;;;;;5050633;28;20061;-49
2023/01/26 07:40:31;;;;;;;287.92;34.33;;;0.60;99.90;;;;;;5042307;28;20358;-49
2023/01/26 07:42:58;;;;;;;231.73;32.15;;;0.70;99.90;;;;;;5042403;28;20037;-50
2023/01/26 07:45:25;;;;;;;252.23;31.10;;;0.40;99.90;;;;;;5039661;28;20080;-50
2023/01/26 07:47:53;;;;;;;227.63;29.38;;;0.10;99.90;;;;;;5045189;28;20412;-50
2023/01/26 07:50:20;;;;;;;252.88;29.45;;;0.60;99.90;;;;;;5044960;28;20029;-49
2023/01/26 07:52:47;;;;;;;296.58;33.08;;;1.10;99.90;;;;;;5044016;28;20044;-47
2023/01/26 07:55:13;;;;;;;369.15;34.05;;;1.10;99.90;;;;;;5050130;28;20037;-48
2023/01/26 07:57:39;;;;;;;275.10;33.95;;;1.10;99.90;;;;;;5050707;28;20492;-47
2023/01/26 08:00:06;;;;;;;326.10;34.15;;;0.80;99.90;;;;;;5051283;28;20043;-49
2023/01/26 08:02:31;;;;;;;220.27;31.35;;;1.10;99.90;;;;;;5051137;28;20087;-48
2023/01/26 08:04:58;;;;;;;250.27;30.83;;;0.80;99.90;;;;;;5052035;28;20416;-49
2023/01/26 08:07:24;;;;;;;234.32;31.40;;;1.10;99.90;;;;;;5050700;28;20384;-50
2023/01/26 08:09:50;;;;;;;233.82;29.55;;;1.20;99.90;;;;;;5051262;28;20033;-50
2023/01/26 08:12:16;;;;;;;175.20;29.35;;;0.40;99.90;;;;;;5051466;28;20045;-48
2023/01/26 08:14:41;;;;;;;204.07;28.17;;;1.10;99.90;;;;;;5051509;28;20545;-48
2023/01/26 08:17:07;;;;;;;184.35;26.17;;;0.30;99.90;;;;;;5051443;28;20044;-50
2023/01/26 08:19:33;;;;;;;162.82;26.02;;;0.30;99.90;;;;;;5051385;28;20136;-48
2023/01/26 08:21:58;;;;;;;156.70;25.40;;;0.40;99.90;;;;;;5051018;28;20049;-47
2023/01/26 08:24:25;;;;;;;162.27;24.85;;;0.40;99.90;;;;;;5051038;28;20041;-48
2023/01/26 08:26:51;;;;;;;152.18;24.90;;;1.60;99.90;;;;;;5051400;28;20512;-48
2023/01/26 08:29:17;;;;;;;150.52;23.33;;;1.30;99.90;;;;;;5051088;28;20043;-47
2023/01/26 08:31:42;;;;;;;151.13;23.58;;;0.50;99.90;;;;;;5051276;28;20075;-48
2023/01/26 08:34:08;;;;;;;136.15;22.67;;;1.20;99.90;;;;;;5051224;28;20087;-51
2023/01/26 08:36:34;;;;;;;153.30;23.05;;;1.00;99.90;;;;;;5051077;28;20066;-47
2023/01/26 08:39:01;;;;;;;143.15;23.50;;;0.80;99.90;;;;;;5050370;28;20052;-50
2023/01/26 08:41:27;;;;;;;138.68;22.13;;;0.60;99.90;;;;;;5050843;28;20045;-47
2023/01/26 08:43:52;;;;;;;145.80;22.63;;;1.60;99.90;;;;;;5050830;28;20029;-50
2023/01/26 08:46:18;;;;;;;156.68;22.83;;;1.60;99.90;;;;;;5050476;28;20163;-49
2023/01/26 08:48:44;;;;;;;121.95;21.08;;;1.40;99.90;;;;;;5050891;28;20036;-50
2023/01/26 08:51:09;;;;;;;128.50;22.50;;;2.50;99.90;;;;;;5050969;28;20114;-50
2023/01/26 08:53:36;;;;;;;134.88;21.88;;;1.30;99.90;;;;;;5049872;28;20519;-48
2023/01/26 08:56:04;;;;;;;114.43;19.75;;;1.20;99.90;;;;;;5048689;28;20049;-50
2023/01/26 08:58:32;;;;;;;114.00;19.52;;;0.80;99.90;;;;;;5050793;28;20045;-50
2023/01/26 09:00:58;;;;;;;121.30;19.65;;;1.60;99.90;;;;;;5049102;28;20107;-51
2023/01/26 09:03:24;;;;;;;113.05;19.15;;;2.00;99.90;;;;;;5050809;28;20122;-48
2023/01/26 09:05:49;;;;;;;111.18;20.67;;;1.80;99.90;;;;;;5050625;28;20436;-48
2023/01/26 09:08:15;;;;;;;118.15;19.75;;;1.80;99.90;;;;;;5050288;28;20500;-47
2023/01/26 09:10:43;;;;;;;136.45;21.27;;;1.40;99.90;;;;;;5049681;28;20047;-49
2023/01/26 09:13:09;;;;;;;131.95;22.10;;;1.90;99.90;;;;;;5049342;28;20464;-47
2023/01/26 09:15:37;;;;;;;127.85;19.35;;;2.10;99.90;;;;;;5050366;28;20111;-47
2023/01/26 09:18:03;;;;;;;114.63;18.90;;;2.30;99.90;;;;;;5049700;28;20124;-48
2023/01/26 09:20:29;;;;;;;125.88;19.52;;;1.50;99.90;;;;;;5050159;28;20047;-50
2023/01/26 09:22:56;;;;;;;107.32;18.67;;;1.50;99.90;;;;;;5050028;28;20119;-48
2023/01/26 09:25:22;;;;;;;102.72;19.05;;;2.30;99.90;;;;;;5050715;28;20041;-49
2023/01/26 09:27:48;;;;;;;124.03;18.73;;;1.80;99.90;;;;;;5050859;28;20366;-50
2023/01/26 09:30:14;;;;;;;112.93;18.88;;;2.50;99.90;;;;;;5049189;28;20500;-50
2023/01/26 09:32:39;;;;;;;104.05;18.15;;;2.90;99.90;;;;;;5049647;28;20120;-50
2023/01/26 09:35:10;;;;;;;105.82;16.25;;;2.10;99.90;;;;;;5049538;28;20159;-47
2023/01/26 09:37:36;;;;;;;96.63;17.35;;;2.10;99.90;;;;;;5050569;28;20103;-49
2023/01/26 09:40:02;;;;;;;103.85;18.70;;;3.20;99.90;;;;;;5050157;28;20494;-52
2023/01/26 09:42:51;;;;;;;80.65;15.60;;;2.30;99.90;;;;;;5050549;28;20037;-51
2023/01/26 09:45:43;;;;;;;94.05;15.40;;;3.50;99.90;;;;;;5050740;28;20113;-51
2023/01/26 09:48:20;;;;;;;79.50;12.80;;;3.40;99.90;;;;;;5050320;28;20036;-50
2023/01/26 09:51:10;;;;;;;73.70;13.57;;;2.60;99.90;;;;;;5050350;28;20461;-48
2023/01/26 09:53:53;;;;;;;65.18;12.68;;;3.50;99.90;;;;;;5049522;28;20033;-49
2023/01/26 09:56:22;;;;;;;84.15;12.32;;;3.70;99.90;;;;;;5050244;28;20123;-49
2023/01/26 09:58:55;;;;;;;72.72;12.52;;;3.60;99.90;;;;;;5050090;28;20033;-51
2023/01/26 10:01:52;;;;;;;72.78;11.45;;;4.60;99.90;;;;;;5049254;28;20041;-51
2023/01/26 10:04:35;;;;;;;74.22;11.80;;;3.30;99.90;;;;;;5050274;28;20423;-50
2023/01/26 10:07:05;;;;;;;74.80;11.68;;;3.70;99.90;;;;;;5050185;28;20052;-49
2023/01/26 10:09:35;;;;;;;74.45;11.63;;;3.60;99.90;;;;;;5049805;28;20040;-49
2023/01/26 10:12:07;;;;;;;67.40;10.93;;;5.10;99.90;;;;;;5048935;28;20052;-48
2023/01/26 10:14:39;;;;;;;61.35;10.00;;;4.00;99.90;;;;;;5050457;28;20037;-50
2023/01/26 10:17:11;;;;;;;57.45;9.25;;;4.30;99.90;;;;;;5050242;28;20047;-49
2023/01/26 10:19:45;;;;;;;56.63;10.25;;;5.30;99.90;;;;;;5065585;28;20080;-51
2023/01/26 10:22:41;;;;;;;43.08;8.20;;;4.10;99.90;;;;;;5049826;28;20132;-51
2023/01/26 10:25:28;;;;;;;60.25;8.32;;;5.20;99.90;;;;;;5035955;28;20088;-52
2023/01/26 10:27:54;;;;;;;57.42;9.48;;;5.40;99.90;;;;;;5053473;28;20033;-49
2023/01/26 10:30:20;;;;;;;42.15;7.63;;;5.30;99.90;;;;;;5053579;28;20041;-52
2023/01/26 10:32:49;;;;;;;51.35;8.38;;;5.10;99.90;;;;;;5052190;28;20159;-49
2023/01/26 10:35:24;;;;;;;36.10;6.10;;;6.20;99.90;;;;;;5052744;28;20095;-50
2023/01/26 10:37:55;;;;;;;34.78;6.10;;;5.70;99.90;;;;;;5053766;28;20155;-49
2023/01/26 10:40:20;;;;;;;40.25;5.15;;;6.10;99.90;;;;;;5053312;28;20048;-48
2023/01/26 10:42:57;;;;;;;33.47;4.93;;;6.00;99.90;;;;;;5053448;28;20037;-49
2023/01/26 10:45:31;;;;;;;29.58;4.72;;;7.10;99.90;;;;;;5053445;28;20033;-48
2023/01/26 10:48:17;;;;;;;28.00;4.60;;;7.00;99.90;;;;;;5053592;28;20495;-49
2023/01/26 10:50:44;;;;;;;31.05;4.05;;;7.00;99.90;;;;;;5053405;28;20315;-50
2023/01/26 10:53:17;;;;;;;27.70;3.83;;;6.70;99.90;;;;;;5053189;28;20053;-50
2023/01/26 10:55:57;;;;;;;25.27;4.03;;;6.70;99.90;;;;;;5053915;28;20452;-49
2023/01/26 10:58:56;;;;;;;37.40;4.68;;;6.80;99.90;;;;;;5053356;28;20123;-48
2023/01/26 11:01:26;;;;;;;24.38;3.90;;;7.30;99.90;;;;;;5052993;28;20064;-46
2023/01/26 11:04:00;;;;;;;23.58;4.10;;;7.20;99.90;;;;;;5052083;28;20048;-49
2023/01/26 11:06:28;;;;;;;22.52;4.63;;;7.30;99.90;;;;;;5051682;28;20049;-50
2023/01/26 11:09:08;;;;;;;31.92;4.78;;;7.30;99.90;;;;;;5052755;28;20071;-49
2023/01/26 11:11:34;;;;;;;24.55;4.45;;;7.50;99.90;;;;;;5053239;28;20167;-49
2023/01/26 11:14:14;;;;;;;29.05;4.35;;;7.70;99.90;;;;;;5035014;28;20149;-49
2023/01/26 11:17:00;;;;;;;28.23;4.47;;;7.60;99.90;;;;;;5052508;28;20033;-47
2023/01/26 11:19:35;;;;;;;25.58;4.68;;;7.30;99.90;;;;;;5052123;28;20036;-50
2023/01/26 11:22:14;;;;;;;21.13;3.70;;;6.70;99.90;;;;;;5052486;28;20045;-48
2023/01/26 11:25:14;;;;;;;28.90;4.82;;;7.20;99.90;;;;;;5053262;28;20328;-49
2023/01/26 11:28:06;;;;;;;24.92;3.97;;;7.40;99.90;;;;;;5052726;28;20033;-50
2023/01/26 11:30:55;;;;;;;25.50;4.20;;;7.60;99.90;;;;;;5052498;28;20029;-51
2023/01/26 11:33:27;;;;;;;27.10;3.92;;;7.90;99.90;;;;;;5052286;28;20048;-49
2023/01/26 11:36:23;;;;;;;25.98;3.78;;;8.10;99.90;;;;;;5052454;28;20052;-48
2023/01/26 11:39:11;;;;;;;21.67;3.80;;;8.30;99.90;;;;;;5051215;28;20119;-51
2023/01/26 11:42:05;;;;;;;21.25;3.05;;;8.40;99.90;;;;;;5052162;28;20055;-49
2023/01/26 11:44:49;;;;;;;20.33;3.22;;;8.50;99.90;;;;;;5052274;28;20033;-50
2023/01/26 11:47:24;;;;;;;;;;;8.60;99.90;;;;;;5053015;28;20361;-49
2023/01/26 11:50:25;;;;;;;24.38;3.35;;;8.50;99.90;;;;;;5052488;28;20303;-49
2023/01/26 11:52:53;;;;;;;15.82;3.38;;;8.70;99.90;;;;;;5009276;28;20507;-50
2023/01/26 11:55:53;;;;;;;17.50;2.97;;;8.80;99.90;;;;;;5039799;28;20182;-52
2023/01/26 11:58:37;;;;;;;18.67;3.05;;;9.00;99.90;;;;;;5052118;28;20037;-50
2023/01/26 12:01:13;;;;;;;24.05;3.53;;;9.10;99.90;;;;;;5052208;28;20040;-48
2023/01/26 12:03:49;;;;;;;18.10;2.90;;;9.10;99.90;;;;;;5052079;28;20045;-48
2023/01/26 12:06:23;;;;;;;17.30;3.03;;;9.20;99.90;;;;;;5066444;28;20033;-51
2023/01/26 12:09:00;;;;;;;17.48;3.13;;;9.20;99.90;;;;;;5051961;28;20076;-49
2023/01/26 12:11:37;;;;;;;16.17;2.88;;;9.20;99.90;;;;;;5033528;28;20044;-49
2023/01/26 12:14:11;;;;;;;18.33;3.13;;;8.90;99.90;;;;;;5051194;28;20072;-48
2023/01/26 12:16:58;;;;;;;16.40;2.88;;;8.70;99.90;;;;;;5049863;28;20131;-49
2023/01/26 12:19:54;;;;;;;24.92;3.58;;;8.30;99.90;;;;;;5050250;28;20127;-49
2023/01/26 12:22:39;;;;;;;21.55;3.42;;;7.90;99.90;;;;;;5050783;28;20053;-50
2023/01/26 12:25:07;;;;;;;14.73;3.30;;;8.10;99.90;;;;;;5051468;28;20044;-51
2023/01/26 12:28:02;;;;;;;19.73;4.32;;;8.30;99.90;;;;;;5051049;28;20068;-50
2023/01/26 12:30:32;;;;;;;;;;;8.50;99.90;;;;;;5051443;28;20090;-52
2023/01/26 12:32:58;;;;;;;16.00;3.15;;;8.80;99.90;;;;;;5049637;28;20445;-49
2023/01/26 12:35:55;;;;;;;21.65;3.60;;;9.10;99.90;;;;;;5051018;28;20032;-52
2023/01/26 12:38:39;;;;;;;18.13;3.13;;;9.00;99.90;;;;;;5050666;28;20032;-53
2023/01/26 12:41:23;;;;;;;19.50;3.13;;;8.90;99.90;;;;;;5050828;28;20051;-51
2023/01/26 12:44:20;;;;;;;19.50;3.17;;;8.60;99.90;;;;;;5050024;28;20043;-50
2023/01/26 12:46:51;;;;;;;12.73;2.40;;;8.40;99.90;;;;;;5050235;28;20094;-50
2023/01/26 12:49:31;;;;;;;17.08;2.67;;;8.10;99.90;;;;;;5051090;28;20068;-50
2023/01/26 12:52:05;;;;;;;14.82;2.72;;;7.80;99.90;;;;;;5049841;28;20045;-51
2023/01/26 12:54:59;;;;;;;16.30;2.22;;;7.70;99.90;;;;;;5051181;28;20041;-50
2023/01/26 12:57:34;;;;;;;20.63;2.70;;;8.00;99.90;;;;;;5049908;28;20503;-50
2023/01/26 13:00:16;;;;;;;14.05;2.28;;;8.40;99.90;;;;;;5050943;28;20040;-51
2023/01/26 13:02:45;;;;;;;13.32;2.15;;;8.50;99.90;;;;;;5050084;28;20045;-50
2023/01/26 13:05:30;;;;;;;12.23;2.10;;;8.80;99.90;;;;;;5051050;28;20071;-50
2023/01/26 13:07:57;;;;;;;19.38;2.97;;;8.60;99.90;;;;;;5051064;28;20073;-48
2023/01/26 13:10:28;;;;;;;15.00;2.70;;;8.50;99.90;;;;;;5050290;28;20029;-52
2023/01/26 13:12:59;;;;;;;11.23;2.60;;;8.50;99.90;;;;;;5051176;28;20037;-49
2023/01/26 13:15:30;;;;;;;21.20;2.70;;;8.40;99.90;;;;;;5049528;28;20045;-48
2023/01/26 13:18:01;;;;;;;13.82;2.25;;;8.20;99.90;;;;;;5049495;28;20041;-47
2023/01/26 13:20:27;;;;;;;14.07;2.33;;;8.20;99.90;;;;;;5049708;28;20037;-50
2023/01/26 13:22:55;;;;;;;12.68;1.67;;;8.10;99.90;;;;;;5050443;28;20094;-53
2023/01/26 13:25:31;;;;;;;13.73;2.00;;;8.00;99.90;;;;;;5050440;28;20037;-54
2023/01/26 13:28:02;;;;;;;13.95;2.15;;;8.10;99.90;;;;;;5049009;28;20582;-49
2023/01/26 13:30:33;;;;;;;12.40;2.22;;;8.00;99.90;;;;;;5050318;28;20045;-49
2023/01/26 13:33:15;;;;;;;11.68;1.65;;;8.10;99.90;;;;;;5050957;28;20460;-52
2023/01/26 13:35:43;;;;;;;14.73;2.10;;;8.10;99.90;;;;;;5066023;28;20128;-46